createdAt,value
2023-01-06T00:01:39.617Z,101744.09
2023-01-06T00:04:03.281Z,101743.28
2023-01-06T00:06:28.140Z,101746.53
2023-01-06T00:08:50.003Z,101741.84
2023-01-06T00:11:14.197Z,101745.06
2023-01-06T00:13:36.351Z,101734.03
2023-01-06T00:15:58.248Z,101731.28
2023-01-06T00:18:20.155Z,101734.53
2023-01-06T00:20:42.025Z,101730.97
2023-01-06T00:23:04.561Z,101727.41
2023-01-06T00:25:26.481Z,101729.38
2023-01-06T00:27:48.401Z,101732.59
2023-01-06T00:30:11.229Z,101725.97
2023-01-06T00:32:33.856Z,101722.91
2023-01-06T00:34:55.841Z,101727.78
2023-01-06T00:37:17.850Z,101732.97
2023-01-06T00:39:39.683Z,101735.41
2023-01-06T00:42:04.434Z,101727.63
2023-01-06T00:44:26.253Z,101732.34
2023-01-06T00:46:48.136Z,101733.16
2023-01-06T00:49:09.999Z,101734.47
2023-01-06T00:51:33.120Z,101725.88
2023-01-06T00:53:55.638Z,101718.09
2023-01-06T00:56:17.585Z,101720.03
2023-01-06T00:58:39.676Z,101720.38
2023-01-06T01:01:09.940Z,101718.41
2023-01-06T01:03:34.317Z,101721.97
2023-01-06T01:06:04.003Z,101713.53
2023-01-06T01:08:25.921Z,101717.09
2023-01-06T01:10:47.871Z,101719.06
2023-01-06T01:13:10.415Z,101722.78
2023-01-06T01:15:32.464Z,101720.84
2023-01-06T01:17:54.364Z,101725.56
2023-01-06T01:20:17.268Z,101715.03
2023-01-06T01:22:39.220Z,101713.06
2023-01-06T01:25:01.149Z,101713.88
2023-01-06T01:27:24.071Z,101711.44
2023-01-06T01:29:47.826Z,101713.72
2023-01-06T01:32:10.462Z,101710.66
2023-01-06T01:34:32.616Z,101718.91
2023-01-06T01:36:55.466Z,101714.22
2023-01-06T01:39:26.332Z,101716.16
2023-01-06T01:41:48.940Z,101707.53
2023-01-06T01:44:51.263Z,101705.59
2023-01-06T01:47:21.620Z,101702.03
2023-01-06T01:49:48.029Z,101702.03
2023-01-06T01:52:12.699Z,101698.16
2023-01-06T01:54:37.840Z,101695.69
2023-01-06T01:57:32.301Z,101679.16
2023-01-06T01:59:54.921Z,101685.31
2023-01-06T02:02:19.406Z,101681.75
2023-01-06T02:04:46.024Z,101670.22
2023-01-06T02:07:09.232Z,101670.72
2023-01-06T02:09:56.617Z,101666.63
2023-01-06T02:12:18.996Z,101674.41
2023-01-06T02:14:40.887Z,101680.75
2023-01-06T02:17:30.629Z,101672.97
2023-01-06T02:20:29.391Z,101667.94
2023-01-06T02:23:14.758Z,101670.22
2023-01-06T02:26:29.012Z,101655.91
2023-01-06T02:29:50.421Z,101660.63
2023-01-06T02:32:35.543Z,101661.44
2023-01-06T02:35:33.166Z,101657.53
2023-01-06T02:38:30.911Z,101652.00
2023-01-06T02:41:32.362Z,101638.06
2023-01-06T02:44:06.397Z,101637.56
2023-01-06T02:47:00.281Z,101625.22
2023-01-06T02:50:15.478Z,101627.97
2023-01-06T02:53:04.529Z,101627.47
2023-01-06T02:55:47.909Z,101615.31
2023-01-06T02:58:19.027Z,101610.91
2023-01-06T03:00:49.867Z,101606.56
2023-01-06T03:03:19.643Z,101601.03
2023-01-06T03:05:47.650Z,101601.66
2023-01-06T03:08:17.618Z,101599.38
2023-01-06T03:10:44.176Z,101590.63
2023-01-06T03:13:17.478Z,101597.78
2023-01-06T03:15:39.553Z,101594.69
2023-01-06T03:18:02.430Z,101596.00
2023-01-06T03:20:24.351Z,101602.00
2023-01-06T03:22:46.683Z,101604.44
2023-01-06T03:25:10.708Z,101606.06
2023-01-06T03:27:34.569Z,101600.88
2023-01-06T03:29:56.829Z,101594.22
2023-01-06T03:32:37.492Z,101597.47
2023-01-06T03:35:14.528Z,101580.13
2023-01-06T03:37:59.718Z,101594.72
2023-01-06T03:40:49.192Z,101586.44
2023-01-06T03:43:16.941Z,101588.22
2023-01-06T03:45:42.403Z,101591.81
2023-01-06T03:48:39.751Z,101582.38
2023-01-06T03:51:41.641Z,101578.81
2023-01-06T03:54:53.853Z,101583.84
2023-01-06T03:57:24.371Z,101576.72
2023-01-06T03:59:58.753Z,101582.22
2023-01-06T04:02:22.536Z,101594.06
2023-01-06T04:04:44.664Z,101597.63
2023-01-06T04:07:07.440Z,101583.53
2023-01-06T04:09:33.329Z,101569.72
2023-01-06T04:12:13.699Z,101568.09
2023-01-06T04:14:36.116Z,101573.59
2023-01-06T04:16:58.310Z,101563.06
2023-01-06T04:19:20.584Z,101554.78
2023-01-06T04:21:42.545Z,101561.13
2023-01-06T04:24:05.708Z,101543.75
2023-01-06T04:26:28.815Z,101546.53
2023-01-06T04:28:51.003Z,101541.66
2023-01-06T04:31:13.674Z,101521.53
2023-01-06T04:33:36.462Z,101523.47
2023-01-06T04:36:00.441Z,101526.56
2023-01-06T04:38:22.665Z,101513.88
2023-01-06T04:40:44.802Z,101528.81
2023-01-06T04:43:06.738Z,101535.94
2023-01-06T04:45:28.578Z,101509.50
2023-01-06T04:47:50.597Z,101498.78
2023-01-06T04:50:12.650Z,101506.25
2023-01-06T04:52:34.481Z,101494.09
2023-01-06T04:54:56.311Z,101495.22
2023-01-06T04:57:18.092Z,101501.25
2023-01-06T04:59:39.868Z,101489.41
2023-01-06T05:02:01.887Z,101492.47
2023-01-06T05:04:23.830Z,101483.38
2023-01-06T05:06:45.772Z,101484.84
2023-01-06T05:09:08.212Z,101486.81
2023-01-06T05:11:30.110Z,101476.56
2023-01-06T05:13:53.593Z,101473.47
2023-01-06T05:16:30.632Z,101483.38
2023-01-06T05:18:54.803Z,101475.91
2023-01-06T05:21:16.994Z,101480.63
2023-01-06T05:23:40.215Z,101479.00
2023-01-06T05:26:02.169Z,101478.69
2023-01-06T05:28:24.279Z,101474.78
2023-01-06T05:30:47.257Z,101474.47
2023-01-06T05:33:09.292Z,101480.78
2023-01-06T05:35:31.262Z,101470.56
2023-01-06T05:37:56.243Z,101474.31
2023-01-06T05:40:18.137Z,101472.34
2023-01-06T05:42:39.995Z,101470.44
2023-01-06T05:45:01.887Z,101473.66
2023-01-06T05:47:23.855Z,101482.28
2023-01-06T05:49:46.887Z,101484.69
2023-01-06T05:52:09.091Z,101476.91
2023-01-06T05:54:31.023Z,101475.44
2023-01-06T05:56:52.880Z,101486.47
2023-01-06T05:59:14.936Z,101487.63
2023-01-06T06:01:36.851Z,101480.34
2023-01-06T06:03:59.989Z,101478.38
2023-01-06T06:06:25.539Z,101486.66
2023-01-06T06:08:47.451Z,101487.78
2023-01-06T06:11:15.465Z,101479.84
2023-01-06T06:13:38.269Z,101483.72
2023-01-06T06:16:09.898Z,101479.34
2023-01-06T06:18:31.902Z,101483.41
2023-01-06T06:20:53.707Z,101488.28
2023-01-06T06:23:15.508Z,101470.13
2023-01-06T06:25:37.411Z,101474.81
2023-01-06T06:28:00.108Z,101479.50
2023-01-06T06:30:21.964Z,101482.13
2023-01-06T06:32:44.170Z,101467.50
2023-01-06T06:35:07.338Z,101471.72
2023-01-06T06:37:29.188Z,101468.13
2023-01-06T06:39:51.165Z,101472.19
2023-01-06T06:42:13.014Z,101478.84
2023-01-06T06:44:34.931Z,101459.88
2023-01-06T06:46:58.675Z,101476.41
2023-01-06T06:49:20.612Z,101475.94
2023-01-06T06:51:42.495Z,101479.50
2023-01-06T06:54:05.352Z,101466.53
2023-01-06T06:56:27.216Z,101469.59
2023-01-06T06:58:49.987Z,101470.44
2023-01-06T07:01:17.266Z,101473.19
2023-01-06T07:03:40.207Z,101473.19
2023-01-06T07:06:04.383Z,101474.50
2023-01-06T07:08:27.825Z,101472.84
2023-01-06T07:10:49.788Z,101490.22
2023-01-06T07:13:12.104Z,101488.59
2023-01-06T07:15:34.560Z,101491.66
2023-01-06T07:18:04.937Z,101489.09
2023-01-06T07:20:26.772Z,101485.84
2023-01-06T07:22:48.616Z,101488.59
2023-01-06T07:25:11.115Z,101498.47
2023-01-06T07:27:33.517Z,101491.03
2023-01-06T07:29:55.308Z,101493.81
2023-01-06T07:32:17.236Z,101494.75
2023-01-06T07:34:39.080Z,101506.09
2023-01-06T07:37:03.052Z,101505.31
2023-01-06T07:39:24.901Z,101505.94
2023-01-06T07:41:46.845Z,101497.50
2023-01-06T07:44:08.753Z,101492.31
2023-01-06T07:46:30.591Z,101503.97
2023-01-06T07:48:52.548Z,101502.66
2023-01-06T07:51:14.366Z,101506.56
2023-01-06T07:53:36.445Z,101508.50
2023-01-06T07:55:58.421Z,101508.00
2023-01-06T07:58:23.911Z,101521.16
2023-01-06T08:00:45.995Z,101515.94
2023-01-06T08:03:08.657Z,101509.63
2023-01-06T08:05:30.603Z,101520.34
2023-01-06T08:07:52.475Z,101523.59
2023-01-06T08:10:14.471Z,101527.97
2023-01-06T08:12:37.229Z,101524.06
2023-01-06T08:14:59.122Z,101521.66
2023-01-06T08:17:21.116Z,101532.69
2023-01-06T08:19:43.018Z,101544.22
2023-01-06T08:22:04.889Z,101548.44
2023-01-06T08:24:27.228Z,101555.41
2023-01-06T08:26:49.102Z,101552.13
2023-01-06T08:29:11.018Z,101556.84
2023-01-06T08:31:33.167Z,101557.47
2023-01-06T08:33:55.077Z,101563.47
2023-01-06T08:36:20.993Z,101573.69
2023-01-06T08:38:44.244Z,101569.00
2023-01-06T08:41:07.416Z,101569.50
2023-01-06T08:43:30.087Z,101575.50
2023-01-06T08:45:53.394Z,101577.63
2023-01-06T08:48:15.940Z,101586.88
2023-01-06T08:50:42.826Z,101585.59
2023-01-06T08:53:04.841Z,101589.66
2023-01-06T08:55:26.743Z,101597.31
2023-01-06T08:57:48.866Z,101596.97
2023-01-06T09:00:11.723Z,101603.94
2023-01-06T09:02:33.709Z,101600.09
2023-01-06T09:04:55.676Z,101612.41
2023-01-06T09:07:17.646Z,101614.53
2023-01-06T09:09:39.496Z,101615.84
2023-01-06T09:12:01.592Z,101620.72
2023-01-06T09:14:23.507Z,101627.22
2023-01-06T09:16:45.496Z,101629.84
2023-01-06T09:19:07.479Z,101635.19
2023-01-06T09:21:29.517Z,101635.56
2023-01-06T09:23:51.701Z,101630.69
2023-01-06T09:26:15.964Z,101634.13
2023-01-06T09:28:37.995Z,101632.81
2023-01-06T09:31:00.013Z,101640.34
2023-01-06T09:33:22.000Z,101647.34
2023-01-06T09:35:45.299Z,101654.16
2023-01-06T09:38:07.308Z,101666.22
2023-01-06T09:41:05.049Z,101665.41
2023-01-06T09:43:50.763Z,101667.50
2023-01-06T09:46:19.042Z,101662.47
2023-01-06T09:48:52.320Z,101664.59
2023-01-06T09:51:23.209Z,101665.41
2023-01-06T09:53:52.919Z,101662.81
2023-01-06T09:56:20.109Z,101675.34
2023-01-06T09:58:50.292Z,101670.31
2023-01-06T10:01:17.258Z,101675.50
2023-01-06T10:03:39.380Z,101671.59
2023-01-06T10:06:29.132Z,101674.84
2023-01-06T10:09:09.405Z,101683.13
2023-01-06T10:12:29.007Z,101671.09
2023-01-06T10:15:17.335Z,101687.34
2023-01-06T10:18:01.352Z,101694.00
2023-01-06T10:20:53.260Z,101680.81
2023-01-06T10:23:36.361Z,101685.66
2023-01-06T10:26:24.495Z,101680.63
2023-01-06T10:28:54.211Z,101678.69
2023-01-06T10:31:22.229Z,101679.81
2023-01-06T10:33:52.509Z,101679.94
2023-01-06T10:36:19.922Z,101675.88
2023-01-06T10:38:50.242Z,101679.31
2023-01-06T10:41:45.361Z,101683.22
2023-01-06T10:44:11.871Z,101682.09
2023-01-06T10:46:36.540Z,101676.84
2023-01-06T10:48:58.475Z,101678.09
2023-01-06T10:51:39.390Z,101675.97
2023-01-06T10:54:08.771Z,101686.84
2023-01-06T10:56:35.216Z,101680.59
2023-01-06T11:02:02.490Z,101684.59
2023-01-06T11:04:28.057Z,101676.56
2023-01-06T11:06:54.739Z,101673.25
2023-01-06T11:09:31.825Z,101678.38
2023-01-06T11:11:57.111Z,101682.56
2023-01-06T11:14:25.081Z,101675.69
2023-01-06T11:17:00.000Z,101679.06
2023-01-06T11:19:44.477Z,101673.88
2023-01-06T11:22:34.456Z,101673.25
2023-01-06T11:24:56.544Z,101682.97
2023-01-06T11:27:18.424Z,101684.53
2023-01-06T11:29:40.573Z,101684.03
2023-01-06T11:32:23.600Z,101675.63
2023-01-06T11:34:55.557Z,101676.00
2023-01-06T11:37:41.451Z,101670.72
2023-01-06T11:40:27.329Z,101685.72
2023-01-06T11:42:55.298Z,101683.78
2023-01-06T11:45:34.710Z,101680.22
2023-01-06T11:47:57.393Z,101677.81
2023-01-06T11:50:21.012Z,101676.50
2023-01-06T11:52:57.902Z,101676.63
2023-01-06T11:55:22.513Z,101677.16
2023-01-06T11:58:08.821Z,101671.16
2023-01-06T12:01:06.510Z,101676.34
2023-01-06T12:03:35.833Z,101672.44
2023-01-06T12:06:32.945Z,101668.50
2023-01-06T12:09:17.525Z,101658.13
2023-01-06T12:11:56.022Z,101663.16
2023-01-06T12:14:28.872Z,101656.81
2023-01-06T12:17:06.943Z,101657.13
2023-01-06T12:19:43.897Z,101665.25
2023-01-06T12:22:37.796Z,101665.91
2023-01-06T12:25:01.949Z,101664.97
2023-01-06T12:28:29.949Z,101650.88
2023-01-06T12:31:07.577Z,101654.41
2023-01-06T12:34:05.681Z,101651.63
2023-01-06T12:36:42.965Z,101651.06
2023-01-06T12:39:25.430Z,101652.53
2023-01-06T12:42:03.250Z,101656.84
2023-01-06T12:44:51.390Z,101656.13
2023-01-06T12:47:46.405Z,101646.63
2023-01-06T12:50:25.873Z,101650.19
2023-01-06T12:53:19.757Z,101649.03
2023-01-06T12:56:04.465Z,101655.47
2023-01-06T12:58:53.564Z,101650.41
2023-01-06T13:02:08.512Z,101654.41
2023-01-06T13:05:03.084Z,101651.44
2023-01-06T13:07:37.030Z,101662.97
2023-01-06T13:10:12.819Z,101658.56
2023-01-06T13:12:46.330Z,101652.34
2023-01-06T13:15:26.486Z,101656.06
2023-01-06T13:18:05.440Z,101654.47
2023-01-06T13:20:42.464Z,101669.88
2023-01-06T13:24:07.263Z,101668.63
2023-01-06T13:26:46.874Z,101675.44
2023-01-06T13:30:04.505Z,101664.47
2023-01-06T13:32:48.313Z,101669.41
2023-01-06T13:35:53.643Z,101672.84
2023-01-06T13:38:24.935Z,101665.69
2023-01-06T13:40:50.130Z,101666.16
2023-01-06T13:43:28.684Z,101656.19
2023-01-06T13:45:58.885Z,101649.66
2023-01-06T13:48:30.946Z,101646.41
2023-01-06T13:50:53.086Z,101645.91
2023-01-06T13:53:22.532Z,101647.88
2023-01-06T13:55:44.905Z,101654.59
2023-01-06T13:58:30.243Z,101660.44
2023-01-06T14:01:24.695Z,101650.03
2023-01-06T14:03:50.239Z,101657.38
2023-01-06T14:06:40.055Z,101658.34
2023-01-06T14:09:02.682Z,101653.44
2023-01-06T14:11:38.398Z,101660.00
2023-01-06T14:14:06.951Z,101654.31
2023-01-06T14:16:58.799Z,101656.31
2023-01-06T14:19:27.043Z,101647.66
2023-01-06T14:21:53.804Z,101652.25
2023-01-06T14:24:28.694Z,101641.56
2023-01-06T14:27:02.432Z,101644.66
2023-01-06T14:29:39.684Z,101649.88
2023-01-06T14:32:01.649Z,101643.06
2023-01-06T14:34:25.072Z,101645.03
2023-01-06T14:36:51.916Z,101653.31
2023-01-06T14:39:24.655Z,101650.06
2023-01-06T14:42:00.619Z,101652.34
2023-01-06T14:44:44.513Z,101642.59
2023-01-06T14:47:18.126Z,101646.81
2023-01-06T14:50:04.581Z,101648.94
2023-01-06T14:52:40.996Z,101647.31
2023-01-06T14:55:13.923Z,101643.25
2023-01-06T14:57:39.753Z,101637.38
2023-01-06T15:00:17.852Z,101638.06
2023-01-06T15:02:48.074Z,101649.94
2023-01-06T15:05:21.259Z,101642.75
2023-01-06T15:08:04.681Z,101636.41
2023-01-06T15:10:29.900Z,101635.94
2023-01-06T15:12:56.813Z,101637.09
2023-01-06T15:15:28.503Z,101635.78
2023-01-06T15:17:53.791Z,101632.53
2023-01-06T15:20:16.194Z,101621.66
2023-01-06T15:22:39.222Z,101628.16
2023-01-06T15:25:01.081Z,101634.19
2023-01-06T15:27:23.083Z,101639.38
2023-01-06T15:29:56.394Z,101643.13
2023-01-06T15:32:22.221Z,101637.31
2023-01-06T15:34:47.701Z,101636.16
2023-01-06T15:37:20.526Z,101638.44
2023-01-06T15:39:44.099Z,101637.78
2023-01-06T15:42:09.830Z,101639.59
2023-01-06T15:44:36.708Z,101639.41
2023-01-06T15:47:28.163Z,101629.31
2023-01-06T15:49:53.633Z,101629.47
2023-01-06T15:52:38.778Z,101638.09
2023-01-06T15:55:18.481Z,101642.97
2023-01-06T15:57:40.661Z,101648.34
2023-01-06T16:00:26.618Z,101650.09
2023-01-06T16:02:49.455Z,101651.38
2023-01-06T16:05:36.512Z,101648.13
2023-01-06T16:08:06.599Z,101649.56
2023-01-06T16:10:39.003Z,101637.69
2023-01-06T16:13:29.138Z,101645.16
2023-01-06T16:16:04.971Z,101642.25
2023-01-06T16:18:33.818Z,101638.19
2023-01-06T16:20:56.991Z,101637.69
2023-01-06T16:23:29.607Z,101645.97
2023-01-06T16:26:10.615Z,101655.88
2023-01-06T16:28:33.725Z,101656.53
2023-01-06T16:31:12.322Z,101649.03
2023-01-06T16:33:41.829Z,101653.75
2023-01-06T16:36:03.870Z,101644.34
2023-01-06T16:38:25.672Z,101651.00
2023-01-06T16:40:51.996Z,101648.75
2023-01-06T16:43:13.798Z,101649.84
2023-01-06T16:45:40.783Z,101649.38
2023-01-06T16:48:03.325Z,101644.19
2023-01-06T16:50:38.642Z,101633.44
2023-01-06T16:53:21.021Z,101629.38
2023-01-06T16:55:43.427Z,101630.03
2023-01-06T16:58:22.972Z,101627.28
2023-01-06T17:00:54.262Z,101631.00
2023-01-06T17:03:24.966Z,101636.81
2023-01-06T17:05:47.373Z,101649.81
2023-01-06T17:08:28.826Z,101655.97
2023-01-06T17:10:50.853Z,101650.47
2023-01-06T17:13:35.956Z,101648.19
2023-01-06T17:16:16.514Z,101650.16
2023-01-06T17:19:01.836Z,101644.28
2023-01-06T17:21:36.502Z,101652.91
2023-01-06T17:24:14.548Z,101638.78
2023-01-06T17:26:36.775Z,101637.66
2023-01-06T17:29:01.558Z,101640.91
2023-01-06T17:31:43.566Z,101633.09
2023-01-06T17:34:18.561Z,101624.34
2023-01-06T17:36:44.196Z,101636.50
2023-01-06T17:39:31.172Z,101639.25
2023-01-06T17:42:12.920Z,101631.63
2023-01-06T17:44:42.711Z,101636.97
2023-01-06T17:47:38.633Z,101627.88
2023-01-06T17:50:18.948Z,101636.16
2023-01-06T17:52:40.831Z,101627.06
2023-01-06T17:55:44.062Z,101633.91
2023-01-06T17:58:15.157Z,101643.78
2023-01-06T18:00:38.643Z,101630.50
2023-01-06T18:03:15.623Z,101638.78
2023-01-06T18:05:37.592Z,101627.13
2023-01-06T18:08:14.541Z,101630.03
2023-01-06T18:10:53.267Z,101633.28
2023-01-06T18:13:51.204Z,101626.63
2023-01-06T18:16:33.246Z,101631.34
2023-01-06T18:19:28.161Z,101632.94
2023-01-06T18:21:50.385Z,101637.34
2023-01-06T18:24:22.679Z,101636.38
2023-01-06T18:26:53.295Z,101634.94
2023-01-06T18:29:24.849Z,101637.84
2023-01-06T18:31:50.425Z,101634.78
2023-01-06T18:34:27.489Z,101633.00
2023-01-06T18:36:54.853Z,101629.09
2023-01-06T18:39:22.965Z,101619.38
2023-01-06T18:41:44.910Z,101623.75
2023-01-06T18:44:20.454Z,101631.72
2023-01-06T18:46:42.376Z,101622.63
2023-01-06T18:49:15.451Z,101621.81
2023-01-06T18:51:37.496Z,101613.53
2023-01-06T18:53:59.652Z,101621.81
2023-01-06T18:56:27.005Z,101623.75
2023-01-06T18:58:52.932Z,101628.44
2023-01-06T19:01:23.659Z,101617.41
2023-01-06T19:04:05.643Z,101616.91
2023-01-06T19:06:33.698Z,101620.31
2023-01-06T19:08:56.885Z,101623.44
2023-01-06T19:11:25.563Z,101614.97
2023-01-06T19:13:49.154Z,101615.28
2023-01-06T19:16:37.222Z,101619.38
2023-01-06T19:19:31.835Z,101622.44
2023-01-06T19:22:08.028Z,101626.66
2023-01-06T19:24:41.317Z,101631.19
2023-01-06T19:27:03.298Z,101632.63
2023-01-06T19:29:35.476Z,101624.66
2023-01-06T19:32:05.659Z,101625.66
2023-01-06T19:34:29.372Z,101630.34
2023-01-06T19:36:54.231Z,101620.94
2023-01-06T19:39:48.781Z,101622.56
2023-01-06T19:42:23.749Z,101622.56
2023-01-06T19:44:49.403Z,101628.06
2023-01-06T19:47:39.174Z,101624.19
2023-01-06T19:50:19.399Z,101621.59
2023-01-06T19:52:41.808Z,101624.34
2023-01-06T19:55:33.117Z,101624.84
2023-01-06T19:58:05.142Z,101626.81
2023-01-06T20:00:49.168Z,101624.53
2023-01-06T20:03:43.263Z,101613.81
2023-01-06T20:06:06.915Z,101620.47
2023-01-06T20:08:28.911Z,101616.06
2023-01-06T20:10:51.040Z,101616.88
2023-01-06T20:13:13.079Z,101612.00
2023-01-06T20:15:34.969Z,101620.28
2023-01-06T20:17:57.032Z,101610.88
2023-01-06T20:20:19.089Z,101618.53
2023-01-06T20:22:41.108Z,101615.75
2023-01-06T20:25:03.539Z,101620.94
2023-01-06T20:27:25.580Z,101622.25
2023-01-06T20:29:47.549Z,101607.97
2023-01-06T20:32:09.447Z,101603.56
2023-01-06T20:34:31.389Z,101602.94
2023-01-06T20:36:53.307Z,101603.41
2023-01-06T20:39:16.080Z,101598.41
2023-01-06T20:41:37.982Z,101600.03
2023-01-06T20:43:59.851Z,101592.56
2023-01-06T20:46:21.870Z,101596.44
2023-01-06T20:48:44.002Z,101599.53
2023-01-06T20:51:06.259Z,101601.81
2023-01-06T20:53:28.270Z,101600.66
2023-01-06T20:55:50.355Z,101593.53
2023-01-06T20:58:12.577Z,101595.13
2023-01-06T21:00:34.584Z,101594.03
2023-01-06T21:02:56.590Z,101583.47
2023-01-06T21:05:20.745Z,101585.41
2023-01-06T21:07:42.695Z,101591.25
2023-01-06T21:10:06.221Z,101588.81
2023-01-06T21:12:28.401Z,101584.44
2023-01-06T21:14:50.327Z,101587.50
2023-01-06T21:17:12.279Z,101584.59
2023-01-06T21:19:34.289Z,101579.38
2023-01-06T21:21:56.332Z,101579.38
2023-01-06T21:24:18.214Z,101580.50
2023-01-06T21:26:40.095Z,101572.22
2023-01-06T21:29:02.060Z,101568.16
2023-01-06T21:31:24.113Z,101575.13
2023-01-06T21:33:46.099Z,101581.50
2023-01-06T21:36:08.711Z,101580.03
2023-01-06T21:38:30.942Z,101589.13
2023-01-06T21:40:54.564Z,101586.53
2023-01-06T21:43:17.587Z,101593.69
2023-01-06T21:45:42.909Z,101594.50
2023-01-06T21:48:06.211Z,101595.00
2023-01-06T21:50:30.665Z,101593.69
2023-01-06T21:52:53.101Z,101593.03
2023-01-06T21:55:15.255Z,101590.28
2023-01-06T21:57:37.351Z,101593.03
2023-01-06T21:59:59.310Z,101591.41
2023-01-06T22:02:21.499Z,101587.81
2023-01-06T22:04:43.720Z,101589.78
2023-01-06T22:07:09.386Z,101588.16
2023-01-06T22:09:32.424Z,101591.22
2023-01-06T22:11:57.043Z,101586.53
2023-01-06T22:14:19.733Z,101586.53
2023-01-06T22:16:42.318Z,101594.00
2023-01-06T22:19:05.463Z,101587.03
2023-01-06T22:21:27.759Z,101589.28
2023-01-06T22:23:52.717Z,101585.91
2023-01-06T22:26:14.590Z,101582.00
2023-01-06T22:28:36.514Z,101583.13
2023-01-06T22:30:58.416Z,101596.94
2023-01-06T22:33:20.639Z,101580.38
2023-01-06T22:35:42.816Z,101583.59
2023-01-06T22:38:04.805Z,101589.13
2023-01-06T22:40:27.875Z,101583.13
2023-01-06T22:42:50.055Z,101581.84
2023-01-06T22:45:13.303Z,101590.13
2023-01-06T22:47:35.213Z,101585.72
2023-01-06T22:49:57.804Z,101590.75
2023-01-06T22:52:19.892Z,101592.69
2023-01-06T22:54:41.835Z,101591.88
2023-01-06T22:57:04.076Z,101594.31
2023-01-06T22:59:25.991Z,101592.69
2023-01-06T23:01:47.942Z,101593.00
2023-01-06T23:04:10.278Z,101594.66
2023-01-06T23:06:32.236Z,101599.03
2023-01-06T23:09:00.201Z,101592.69
2023-01-06T23:11:23.941Z,101599.38
2023-01-06T23:13:47.423Z,101600.47
2023-01-06T23:16:14.384Z,101599.97
2023-01-06T23:18:39.736Z,101596.25
2023-01-06T23:21:08.002Z,101606.81
2023-01-06T23:23:32.734Z,101591.34
2023-01-06T23:26:05.217Z,101589.75
2023-01-06T23:28:28.772Z,101582.94
2023-01-06T23:30:50.644Z,101589.59
2023-01-06T23:33:12.478Z,101586.94
2023-01-06T23:35:34.310Z,101586.16
2023-01-06T23:37:56.158Z,101579.66
2023-01-06T23:40:18.004Z,101575.59
2023-01-06T23:42:47.966Z,101578.97
2023-01-06T23:45:10.625Z,101579.31
2023-01-06T23:47:32.463Z,101580.78
2023-01-06T23:49:54.433Z,101583.19
2023-01-06T23:52:16.275Z,101573.81
2023-01-06T23:54:38.545Z,101579.31
2023-01-06T23:57:00.373Z,101574.91
2023-01-06T23:59:22.268Z,101574.91
